Fellowship, Louisiana
Current Conditions -  °F | °C
As of 5:53 PM on Sunday 25 Jan 2015 (Local Time) from KESF Reporting Station
Clear Clear  
Wind Chill: 62°   Ceiling: Unl
Heat Index: 62°   Visibility: 10mi
Dew Point: 35°   Wind: 7mph
Humidity: 37%   Direction: 290°WNW
Pressure: 29.9"   Gusts: NA
Location:  31.6376°N, 92.2485°W
Report Text: KESF 252353Z AUTO 29006KT 10SM CLR 17/02 A2990 RMK AO2 SLP125 T01670017 10206 20167 51017
Loading
Personal Weather Stations






























Interactive Weather Map New forecast layout! Learn more

10-Day Weather Forecast

Advertisements
Track Severe Weather on mobile